A- A+ FrançaisEnglishEspañol中国

Services sur Internet Soldes sur Internet Des idées de cadeaux Météo Météo aéro

La météo à : Autours de vous Tarbes-Lourdes-PyrénéesMontpellier-Frejorgues Brest-Guipavas Bordeaux-Yvrac

manche à air

La météo aéronautique pour les pilotes, la préparation du vol avec les METAR (METeorological Aerodrome Report, message d'observation des conditions météorologiques pour l'aviation) et Les TAF (Terminal Aerodrome Forecast : message de prévision à court terme des conditions météorologiques pour l'aviation). Et les autres ressources comme les VAC (Visual Approch Chart) et les NOTAM (Notice To Airman) pour préprer les vols.

Aéroport Scilly Isles (Royaume-Uni) / OACI EGHE/ IATA ISC

L'altitude de l'aéroport Scilly Isles est de 35 m = 115 ft. Il est situé à proximité de St. Mary's (Royaume-Uni). La météo générale à 5 jours est disponible pour Penzance situé à 57.5 km.

METAR de l'aéroport Scilly Isles - EGHE

EGHE 110720Z 25023G34KT 8000 -RA FEW008 BKN020 08/05 Q1006

Décodage du METAR de l'aéroport Scilly Isles (GB)

METAR émis par EGHE le mercredi 11 décembre 2019 à 07:20 heure TU, il y a 39 minutes.

La visibilité est de 8 km = 5 sm.

La température est de 8°C = 46 °F et le point rosée est de 5°C = 41 °F . Ce qui correspond à 81% d'humidité relative.

Le QNH est de 1006 hPa = 29.71 inHg

Vent de 23 kt = 43 km/h avec des rafales à 34 kt = 63 km/h, orienté à 250°.

Nuages : Quelques nuages à 800 ft = 240 mètres. Couverture nuageuse fragmentée à 2000 ft = 610 mètres.

-RA

TAF de l'aéroport Scilly Isles - EGHE

EGHE 110727Z 1107/1115 26022KT 9999 SCT020

EGHE 110727Z 1107/1115 26022KT 9999 nuages épars à 020

Aéroport à proximité de Scilly Isles

Météo générale à 5 jours à Penzance (57.5 km)Aéroport Lands End (49 km)Aéroport Culdrose (76 km)Aéroport Predannack (Closed) (77 km)Aéroport Truro (91 km)Aéroport Perranporth (92 km)Aéroport Bodmin (133 km)

VAC de l'aéroport Scilly Isles - EGHE

La carte d'approche à vue (VAC Visual Approah Chart) est fournie sans aucune garantie de son actualité. Le pilote est le seul responsable de la vérification de sa validité avant de l'utiliser opérationnellement pour préparer un vol ou l'utiliser lors de sa navigation.

VAC de EGHE

Vue aérienne de l'aéroport Scilly Isles

NOTAM de l'aéroport Scilly Isles

Les NOTAM sont fournis sans aucune garantie de leur actualité. Le pilote est le seul responsable de la vérification de sa validité avant de l'utiliser opérationnellement pour préparer un vol ou l'utiliser lors de sa navigation.

Pas de NOTAM

Sources des données